sensor_id;sensor_type;location;lat;lon;timestamp;temperature;humidity
40676;DHT22;26359;48.750;9.314;2023-06-24T00:00:03;17.50;99.90
40676;DHT22;26359;48.750;9.314;2023-06-24T00:02:34;17.50;99.90
40676;DHT22;26359;48.750;9.314;2023-06-24T00:05:02;17.50;99.90
40676;DHT22;26359;48.750;9.314;2023-06-24T00:07:29;17.50;99.90
40676;DHT22;26359;48.750;9.314;2023-06-24T00:09:54;17.50;99.90
40676;DHT22;26359;48.750;9.314;2023-06-24T00:12:20;17.50;99.90
40676;DHT22;26359;48.750;9.314;2023-06-24T00:14:46;17.50;99.90
40676;DHT22;26359;48.750;9.314;2023-06-24T00:17:12;17.40;99.90
40676;DHT22;26359;48.750;9.314;2023-06-24T00:19:37;17.40;99.90
40676;DHT22;26359;48.750;9.314;2023-06-24T00:22:03;17.40;99.90
40676;DHT22;26359;48.750;9.314;2023-06-24T00:24:29;17.40;99.90
40676;DHT22;26359;48.750;9.314;2023-06-24T00:26:56;17.40;99.90
40676;DHT22;26359;48.750;9.314;2023-06-24T00:29:22;17.40;99.90
40676;DHT22;26359;48.750;9.314;2023-06-24T00:31:47;17.40;99.90
40676;DHT22;26359;48.750;9.314;2023-06-24T00:34:13;17.40;99.90
40676;DHT22;26359;48.750;9.314;2023-06-24T00:36:39;17.40;99.90
40676;DHT22;26359;48.750;9.314;2023-06-24T00:39:05;17.30;99.90
40676;DHT22;26359;48.750;9.314;2023-06-24T00:41:34;17.20;99.90
40676;DHT22;26359;48.750;9.314;2023-06-24T00:44:01;17.10;99.90
40676;DHT22;26359;48.750;9.314;2023-06-24T00:46:27;17.10;99.90
40676;DHT22;26359;48.750;9.314;2023-06-24T00:48:55;17.00;99.90
40676;DHT22;26359;48.750;9.314;2023-06-24T00:51:21;17.00;99.90
40676;DHT22;26359;48.750;9.314;2023-06-24T00:53:54;17.00;99.90
40676;DHT22;26359;48.750;9.314;2023-06-24T00:56:21;17.10;99.90
40676;DHT22;26359;48.750;9.314;2023-06-24T00:58:49;17.10;99.90
40676;DHT22;26359;48.750;9.314;2023-06-24T01:01:16;17.10;99.90
40676;DHT22;26359;48.750;9.314;2023-06-24T01:03:42;17.10;99.90
40676;DHT22;26359;48.750;9.314;2023-06-24T01:06:08;17.00;99.90
40676;DHT22;26359;48.750;9.314;2023-06-24T01:08:35;17.00;99.90
40676;DHT22;26359;48.750;9.314;2023-06-24T01:11:00;17.00;99.90
40676;DHT22;26359;48.750;9.314;2023-06-24T01:13:26;17.00;99.90
40676;DHT22;26359;48.750;9.314;2023-06-24T01:15:52;16.90;99.90
40676;DHT22;26359;48.750;9.314;2023-06-24T01:18:37;16.90;99.90
40676;DHT22;26359;48.750;9.314;2023-06-24T01:23:58;16.90;99.90
40676;DHT22;26359;48.750;9.314;2023-06-24T01:26:52;16.80;99.90
40676;DHT22;26359;48.750;9.314;2023-06-24T01:34:55;16.70;99.90
40676;DHT22;26359;48.750;9.314;2023-06-24T01:37:42;16.60;99.90
40676;DHT22;26359;48.750;9.314;2023-06-24T01:40:13;16.60;99.90
40676;DHT22;26359;48.750;9.314;2023-06-24T01:42:42;16.50;99.90
40676;DHT22;26359;48.750;9.314;2023-06-24T01:45:12;16.50;99.90
40676;DHT22;26359;48.750;9.314;2023-06-24T01:47:40;16.40;99.90
40676;DHT22;26359;48.750;9.314;2023-06-24T01:50:10;16.40;99.90
40676;DHT22;26359;48.750;9.314;2023-06-24T01:52:38;16.40;99.90
40676;DHT22;26359;48.750;9.314;2023-06-24T01:55:07;16.40;99.90
40676;DHT22;26359;48.750;9.314;2023-06-24T01:57:34;16.30;99.90
40676;DHT22;26359;48.750;9.314;2023-06-24T02:00:02;16.30;99.90
40676;DHT22;26359;48.750;9.314;2023-06-24T02:02:32;16.40;99.90
40676;DHT22;26359;48.750;9.314;2023-06-24T02:04:58;16.30;99.90
40676;DHT22;26359;48.750;9.314;2023-06-24T02:07:26;16.30;99.90
40676;DHT22;26359;48.750;9.314;2023-06-24T02:09:55;16.30;99.90
40676;DHT22;26359;48.750;9.314;2023-06-24T02:12:21;16.30;99.90
40676;DHT22;26359;48.750;9.314;2023-06-24T02:14:48;16.30;99.90
40676;DHT22;26359;48.750;9.314;2023-06-24T02:17:14;16.30;99.90
40676;DHT22;26359;48.750;9.314;2023-06-24T02:19:41;16.40;99.90
40676;DHT22;26359;48.750;9.314;2023-06-24T02:22:07;16.30;99.90
40676;DHT22;26359;48.750;9.314;2023-06-24T02:24:37;16.20;99.90
40676;DHT22;26359;48.750;9.314;2023-06-24T02:27:04;16.20;99.90
40676;DHT22;26359;48.750;9.314;2023-06-24T02:29:30;16.20;99.90
40676;DHT22;26359;48.750;9.314;2023-06-24T02:31:57;16.20;99.90
40676;DHT22;26359;48.750;9.314;2023-06-24T02:34:23;16.30;99.90
40676;DHT22;26359;48.750;9.314;2023-06-24T02:36:49;16.30;99.90
40676;DHT22;26359;48.750;9.314;2023-06-24T02:39:15;16.20;99.90
40676;DHT22;26359;48.750;9.314;2023-06-24T02:41:40;16.20;99.90
40676;DHT22;26359;48.750;9.314;2023-06-24T02:44:06;16.20;99.90
40676;DHT22;26359;48.750;9.314;2023-06-24T02:46:33;16.20;99.90
40676;DHT22;26359;48.750;9.314;2023-06-24T02:49:00;16.10;99.90
40676;DHT22;26359;48.750;9.314;2023-06-24T02:51:26;16.10;99.90
40676;DHT22;26359;48.750;9.314;2023-06-24T02:53:52;16.00;99.90
40676;DHT22;26359;48.750;9.314;2023-06-24T02:56:18;16.00;99.90
40676;DHT22;26359;48.750;9.314;2023-06-24T02:58:46;15.90;99.90
40676;DHT22;26359;48.750;9.314;2023-06-24T03:01:12;15.90;99.90
40676;DHT22;26359;48.750;9.314;2023-06-24T03:03:37;15.80;99.90
40676;DHT22;26359;48.750;9.314;2023-06-24T03:06:03;15.90;99.90
40676;DHT22;26359;48.750;9.314;2023-06-24T03:08:29;15.80;99.90
40676;DHT22;26359;48.750;9.314;2023-06-24T03:10:55;15.70;99.90
40676;DHT22;26359;48.750;9.314;2023-06-24T03:13:21;15.70;99.90
40676;DHT22;26359;48.750;9.314;2023-06-24T03:15:47;15.80;99.90
40676;DHT22;26359;48.750;9.314;2023-06-24T03:18:12;15.60;99.90
40676;DHT22;26359;48.750;9.314;2023-06-24T03:20:38;15.60;99.90
40676;DHT22;26359;48.750;9.314;2023-06-24T03:23:06;15.70;99.90
40676;DHT22;26359;48.750;9.314;2023-06-24T03:25:32;15.50;99.90
40676;DHT22;26359;48.750;9.314;2023-06-24T03:27:58;15.60;99.90
40676;DHT22;26359;48.750;9.314;2023-06-24T03:30:26;15.60;99.90
40676;DHT22;26359;48.750;9.314;2023-06-24T03:32:52;15.60;99.90
40676;DHT22;26359;48.750;9.314;2023-06-24T03:35:18;15.60;99.90
40676;DHT22;26359;48.750;9.314;2023-06-24T03:37:44;15.50;99.90
40676;DHT22;26359;48.750;9.314;2023-06-24T03:40:10;15.50;99.90
40676;DHT22;26359;48.750;9.314;2023-06-24T03:42:35;15.50;99.90
40676;DHT22;26359;48.750;9.314;2023-06-24T03:45:03;15.60;99.90
40676;DHT22;26359;48.750;9.314;2023-06-24T03:47:29;15.60;99.90
40676;DHT22;26359;48.750;9.314;2023-06-24T03:49:55;15.50;99.90
40676;DHT22;26359;48.750;9.314;2023-06-24T03:52:21;15.50;99.90
40676;DHT22;26359;48.750;9.314;2023-06-24T03:54:46;15.60;99.90
40676;DHT22;26359;48.750;9.314;2023-06-24T03:57:15;15.60;99.90
40676;DHT22;26359;48.750;9.314;2023-06-24T03:59:40;15.70;99.90
40676;DHT22;26359;48.750;9.314;2023-06-24T04:02:06;15.70;99.90
40676;DHT22;26359;48.750;9.314;2023-06-24T04:04:35;15.70;99.90
40676;DHT22;26359;48.750;9.314;2023-06-24T04:07:01;15.70;99.90
40676;DHT22;26359;48.750;9.314;2023-06-24T04:09:26;15.80;99.90
40676;DHT22;26359;48.750;9.314;2023-06-24T04:11:52;15.80;99.90
40676;DHT22;26359;48.750;9.314;2023-06-24T04:14:17;15.80;99.90
40676;DHT22;26359;48.750;9.314;2023-06-24T04:16:43;15.80;99.90
40676;DHT22;26359;48.750;9.314;2023-06-24T04:19:08;15.80;99.90
40676;DHT22;26359;48.750;9.314;2023-06-24T04:21:34;15.80;99.90
40676;DHT22;26359;48.750;9.314;2023-06-24T04:23:59;15.80;99.90
40676;DHT22;26359;48.750;9.314;2023-06-24T04:26:25;15.80;99.90
40676;DHT22;26359;48.750;9.314;2023-06-24T04:28:51;15.90;99.90
40676;DHT22;26359;48.750;9.314;2023-06-24T04:31:17;15.90;99.90
40676;DHT22;26359;48.750;9.314;2023-06-24T04:33:42;15.90;99.90
40676;DHT22;26359;48.750;9.314;2023-06-24T04:36:08;15.90;99.90
40676;DHT22;26359;48.750;9.314;2023-06-24T04:38:33;15.90;99.90
40676;DHT22;26359;48.750;9.314;2023-06-24T04:40:59;15.90;99.90
40676;DHT22;26359;48.750;9.314;2023-06-24T04:43:25;15.90;99.90
40676;DHT22;26359;48.750;9.314;2023-06-24T04:45:53;16.00;99.90
40676;DHT22;26359;48.750;9.314;2023-06-24T04:48:20;16.00;99.90
40676;DHT22;26359;48.750;9.314;2023-06-24T04:50:46;16.00;99.90
40676;DHT22;26359;48.750;9.314;2023-06-24T04:53:11;16.10;99.90
40676;DHT22;26359;48.750;9.314;2023-06-24T04:55:37;16.10;99.90
40676;DHT22;26359;48.750;9.314;2023-06-24T04:58:02;16.10;99.90
40676;DHT22;26359;48.750;9.314;2023-06-24T05:00:28;16.20;99.90
40676;DHT22;26359;48.750;9.314;2023-06-24T05:02:53;16.20;99.90
40676;DHT22;26359;48.750;9.314;2023-06-24T05:05:19;16.30;99.90
40676;DHT22;26359;48.750;9.314;2023-06-24T05:07:46;16.30;99.90
40676;DHT22;26359;48.750;9.314;2023-06-24T05:10:11;16.30;99.90
40676;DHT22;26359;48.750;9.314;2023-06-24T05:12:37;16.30;99.90
40676;DHT22;26359;48.750;9.314;2023-06-24T05:15:02;16.40;99.90
40676;DHT22;26359;48.750;9.314;2023-06-24T05:17:28;16.30;99.90
40676;DHT22;26359;48.750;9.314;2023-06-24T05:19:53;16.30;99.90
40676;DHT22;26359;48.750;9.314;2023-06-24T05:22:19;16.40;99.90
40676;DHT22;26359;48.750;9.314;2023-06-24T05:24:44;16.50;99.90
40676;DHT22;26359;48.750;9.314;2023-06-24T05:27:10;16.60;99.90
40676;DHT22;26359;48.750;9.314;2023-06-24T05:29:35;16.60;99.90
40676;DHT22;26359;48.750;9.314;2023-06-24T05:32:01;16.70;99.90
40676;DHT22;26359;48.750;9.314;2023-06-24T05:34:29;16.70;99.90
40676;DHT22;26359;48.750;9.314;2023-06-24T05:36:55;16.70;99.90
40676;DHT22;26359;48.750;9.314;2023-06-24T05:39:20;16.70;99.90
40676;DHT22;26359;48.750;9.314;2023-06-24T05:41:46;16.70;99.90
40676;DHT22;26359;48.750;9.314;2023-06-24T05:44:13;16.70;99.90
40676;DHT22;26359;48.750;9.314;2023-06-24T05:46:39;16.80;99.90
40676;DHT22;26359;48.750;9.314;2023-06-24T05:49:04;16.90;99.90
40676;DHT22;26359;48.750;9.314;2023-06-24T05:51:30;16.90;99.90
40676;DHT22;26359;48.750;9.314;2023-06-24T05:53:56;16.90;99.90
40676;DHT22;26359;48.750;9.314;2023-06-24T05:56:22;16.90;99.90
40676;DHT22;26359;48.750;9.314;2023-06-24T05:58:48;16.90;99.90
40676;DHT22;26359;48.750;9.314;2023-06-24T06:01:14;17.00;99.90
40676;DHT22;26359;48.750;9.314;2023-06-24T06:03:39;17.00;99.90
40676;DHT22;26359;48.750;9.314;2023-06-24T06:06:05;17.00;99.90
40676;DHT22;26359;48.750;9.314;2023-06-24T06:08:30;17.00;99.90
40676;DHT22;26359;48.750;9.314;2023-06-24T06:10:56;17.10;99.90
40676;DHT22;26359;48.750;9.314;2023-06-24T06:13:21;17.10;99.90
40676;DHT22;26359;48.750;9.314;2023-06-24T06:15:47;17.10;99.90
40676;DHT22;26359;48.750;9.314;2023-06-24T06:18:12;17.20;99.90
40676;DHT22;26359;48.750;9.314;2023-06-24T06:20:38;17.20;99.90
40676;DHT22;26359;48.750;9.314;2023-06-24T06:23:04;17.20;99.90
40676;DHT22;26359;48.750;9.314;2023-06-24T06:25:29;17.20;99.90
40676;DHT22;26359;48.750;9.314;2023-06-24T06:27:55;17.40;99.90
40676;DHT22;26359;48.750;9.314;2023-06-24T06:30:20;17.40;99.90
40676;DHT22;26359;48.750;9.314;2023-06-24T06:32:46;17.40;99.90
40676;DHT22;26359;48.750;9.314;2023-06-24T06:35:11;17.50;99.90
40676;DHT22;26359;48.750;9.314;2023-06-24T06:37:37;17.60;99.90
40676;DHT22;26359;48.750;9.314;2023-06-24T06:40:03;17.70;99.90
40676;DHT22;26359;48.750;9.314;2023-06-24T06:42:29;17.80;99.90
40676;DHT22;26359;48.750;9.314;2023-06-24T06:44:55;17.90;99.90
40676;DHT22;26359;48.750;9.314;2023-06-24T06:47:20;18.00;99.90
40676;DHT22;26359;48.750;9.314;2023-06-24T06:49:46;18.00;99.90
40676;DHT22;26359;48.750;9.314;2023-06-24T06:52:11;18.00;99.90
40676;DHT22;26359;48.750;9.314;2023-06-24T06:54:37;18.10;99.90
40676;DHT22;26359;48.750;9.314;2023-06-24T06:57:03;18.20;99.90
40676;DHT22;26359;48.750;9.314;2023-06-24T06:59:32;18.30;99.90
40676;DHT22;26359;48.750;9.314;2023-06-24T07:01:57;18.30;99.90
40676;DHT22;26359;48.750;9.314;2023-06-24T07:04:23;18.40;99.90
40676;DHT22;26359;48.750;9.314;2023-06-24T07:06:49;18.40;99.90
40676;DHT22;26359;48.750;9.314;2023-06-24T07:09:14;18.50;99.90
40676;DHT22;26359;48.750;9.314;2023-06-24T07:11:41;18.50;99.90
40676;DHT22;26359;48.750;9.314;2023-06-24T07:14:07;18.60;99.90
40676;DHT22;26359;48.750;9.314;2023-06-24T07:16:32;18.70;99.90
40676;DHT22;26359;48.750;9.314;2023-06-24T07:18:58;18.80;99.90
40676;DHT22;26359;48.750;9.314;2023-06-24T07:21:23;18.90;99.90
40676;DHT22;26359;48.750;9.314;2023-06-24T07:23:49;19.10;99.90
40676;DHT22;26359;48.750;9.314;2023-06-24T07:26:14;19.10;99.90
40676;DHT22;26359;48.750;9.314;2023-06-24T07:28:40;19.20;99.90
40676;DHT22;26359;48.750;9.314;2023-06-24T07:31:05;19.20;99.90
40676;DHT22;26359;48.750;9.314;2023-06-24T07:33:31;19.40;99.90
40676;DHT22;26359;48.750;9.314;2023-06-24T07:35:57;19.50;99.90
40676;DHT22;26359;48.750;9.314;2023-06-24T07:38:22;19.50;99.90
40676;DHT22;26359;48.750;9.314;2023-06-24T07:40:48;19.70;99.90
40676;DHT22;26359;48.750;9.314;2023-06-24T07:43:14;19.80;99.90
40676;DHT22;26359;48.750;9.314;2023-06-24T07:45:40;19.80;99.90
40676;DHT22;26359;48.750;9.314;2023-06-24T07:48:06;19.90;99.90
40676;DHT22;26359;48.750;9.314;2023-06-24T07:50:33;20.00;99.90
40676;DHT22;26359;48.750;9.314;2023-06-24T07:52:59;20.00;99.90
40676;DHT22;26359;48.750;9.314;2023-06-24T07:55:24;20.00;99.90
40676;DHT22;26359;48.750;9.314;2023-06-24T07:57:50;20.10;99.90
40676;DHT22;26359;48.750;9.314;2023-06-24T08:00:15;20.20;99.90
40676;DHT22;26359;48.750;9.314;2023-06-24T08:02:41;20.20;99.90
40676;DHT22;26359;48.750;9.314;2023-06-24T08:05:07;20.30;99.90
40676;DHT22;26359;48.750;9.314;2023-06-24T08:07:34;20.50;99.90
40676;DHT22;26359;48.750;9.314;2023-06-24T08:10:00;20.60;99.90
40676;DHT22;26359;48.750;9.314;2023-06-24T08:12:26;20.60;99.90
40676;DHT22;26359;48.750;9.314;2023-06-24T08:14:51;20.80;99.90
40676;DHT22;26359;48.750;9.314;2023-06-24T08:17:17;20.90;99.90
40676;DHT22;26359;48.750;9.314;2023-06-24T08:19:42;21.00;99.90
40676;DHT22;26359;48.750;9.314;2023-06-24T08:22:08;21.20;99.90
40676;DHT22;26359;48.750;9.314;2023-06-24T08:24:33;21.20;99.90
40676;DHT22;26359;48.750;9.314;2023-06-24T08:26:59;21.30;99.90
40676;DHT22;26359;48.750;9.314;2023-06-24T08:29:24;21.40;99.90
40676;DHT22;26359;48.750;9.314;2023-06-24T08:31:50;21.50;99.90
40676;DHT22;26359;48.750;9.314;2023-06-24T08:34:15;21.40;99.90
40676;DHT22;26359;48.750;9.314;2023-06-24T08:36:41;21.50;99.90
40676;DHT22;26359;48.750;9.314;2023-06-24T08:39:07;21.60;99.90
40676;DHT22;26359;48.750;9.314;2023-06-24T08:41:33;21.70;99.90
40676;DHT22;26359;48.750;9.314;2023-06-24T08:43:59;21.80;99.90
40676;DHT22;26359;48.750;9.314;2023-06-24T08:46:25;21.90;99.90
40676;DHT22;26359;48.750;9.314;2023-06-24T08:48:59;21.90;99.90
40676;DHT22;26359;48.750;9.314;2023-06-24T08:51:29;22.00;99.90
40676;DHT22;26359;48.750;9.314;2023-06-24T08:53:57;22.00;99.90
40676;DHT22;26359;48.750;9.314;2023-06-24T08:56:23;22.10;99.90
40676;DHT22;26359;48.750;9.314;2023-06-24T08:58:50;22.20;99.90
40676;DHT22;26359;48.750;9.314;2023-06-24T09:01:16;22.30;99.90
40676;DHT22;26359;48.750;9.314;2023-06-24T09:03:42;22.40;99.90
40676;DHT22;26359;48.750;9.314;2023-06-24T09:06:08;22.40;99.90
40676;DHT22;26359;48.750;9.314;2023-06-24T09:08:33;22.50;99.90
40676;DHT22;26359;48.750;9.314;2023-06-24T09:11:00;22.50;99.90
40676;DHT22;26359;48.750;9.314;2023-06-24T09:13:36;22.60;99.90
40676;DHT22;26359;48.750;9.314;2023-06-24T09:16:12;22.60;99.90
40676;DHT22;26359;48.750;9.314;2023-06-24T09:18:39;22.70;99.90
40676;DHT22;26359;48.750;9.314;2023-06-24T09:21:04;22.80;99.90
40676;DHT22;26359;48.750;9.314;2023-06-24T09:23:35;22.80;99.90
40676;DHT22;26359;48.750;9.314;2023-06-24T09:26:01;23.00;99.90
40676;DHT22;26359;48.750;9.314;2023-06-24T09:28:27;23.10;99.90
40676;DHT22;26359;48.750;9.314;2023-06-24T09:31:11;23.20;99.90
40676;DHT22;26359;48.750;9.314;2023-06-24T09:33:36;23.40;99.90
40676;DHT22;26359;48.750;9.314;2023-06-24T09:36:05;23.40;99.90
40676;DHT22;26359;48.750;9.314;2023-06-24T09:38:37;23.60;99.90
40676;DHT22;26359;48.750;9.314;2023-06-24T09:41:07;23.70;99.90
40676;DHT22;26359;48.750;9.314;2023-06-24T09:43:37;23.70;99.90
40676;DHT22;26359;48.750;9.314;2023-06-24T09:46:06;23.70;99.90
40676;DHT22;26359;48.750;9.314;2023-06-24T09:48:33;23.80;99.90
40676;DHT22;26359;48.750;9.314;2023-06-24T09:51:03;23.90;99.90
40676;DHT22;26359;48.750;9.314;2023-06-24T09:53:34;24.00;99.90
40676;DHT22;26359;48.750;9.314;2023-06-24T09:56:00;24.00;99.90
40676;DHT22;26359;48.750;9.314;2023-06-24T09:58:30;24.10;99.90
40676;DHT22;26359;48.750;9.314;2023-06-24T10:00:59;24.20;99.90
40676;DHT22;26359;48.750;9.314;2023-06-24T10:03:26;24.30;99.90
40676;DHT22;26359;48.750;9.314;2023-06-24T10:05:52;24.40;99.90
40676;DHT22;26359;48.750;9.314;2023-06-24T10:08:18;24.40;99.90
40676;DHT22;26359;48.750;9.314;2023-06-24T10:10:45;24.50;99.90
40676;DHT22;26359;48.750;9.314;2023-06-24T10:13:11;24.50;99.90
40676;DHT22;26359;48.750;9.314;2023-06-24T10:15:37;24.50;99.90
40676;DHT22;26359;48.750;9.314;2023-06-24T10:18:03;24.60;99.90
40676;DHT22;26359;48.750;9.314;2023-06-24T10:20:29;24.90;99.90
40676;DHT22;26359;48.750;9.314;2023-06-24T10:22:54;25.00;99.90
40676;DHT22;26359;48.750;9.314;2023-06-24T10:25:20;25.00;99.90
40676;DHT22;26359;48.750;9.314;2023-06-24T10:27:53;25.00;99.80
40676;DHT22;26359;48.750;9.314;2023-06-24T10:30:19;24.90;99.90
40676;DHT22;26359;48.750;9.314;2023-06-24T10:32:51;24.80;99.90
40676;DHT22;26359;48.750;9.314;2023-06-24T10:38:00;24.60;99.90
40676;DHT22;26359;48.750;9.314;2023-06-24T10:45:52;24.30;99.90
40676;DHT22;26359;48.750;9.314;2023-06-24T10:48:18;24.20;99.90
40676;DHT22;26359;48.750;9.314;2023-06-24T10:50:45;24.10;99.90
40676;DHT22;26359;48.750;9.314;2023-06-24T10:53:12;24.00;99.90
40676;DHT22;26359;48.750;9.314;2023-06-24T10:55:39;24.30;99.90
40676;DHT22;26359;48.750;9.314;2023-06-24T10:58:12;24.60;99.90
40676;DHT22;26359;48.750;9.314;2023-06-24T11:00:41;24.90;99.90
40676;DHT22;26359;48.750;9.314;2023-06-24T11:03:11;25.20;99.40
40676;DHT22;26359;48.750;9.314;2023-06-24T11:05:39;25.60;98.80
40676;DHT22;26359;48.750;9.314;2023-06-24T11:08:07;25.90;99.00
40676;DHT22;26359;48.750;9.314;2023-06-24T11:10:32;26.20;98.80
40676;DHT22;26359;48.750;9.314;2023-06-24T11:13:05;26.40;97.80
40676;DHT22;26359;48.750;9.314;2023-06-24T11:15:32;26.70;96.30
40676;DHT22;26359;48.750;9.314;2023-06-24T11:17:58;27.00;95.80
40676;DHT22;26359;48.750;9.314;2023-06-24T11:20:23;27.40;95.50
40676;DHT22;26359;48.750;9.314;2023-06-24T11:22:49;27.70;95.30
40676;DHT22;26359;48.750;9.314;2023-06-24T11:25:19;27.90;92.90
40676;DHT22;26359;48.750;9.314;2023-06-24T11:27:45;28.00;93.50
40676;DHT22;26359;48.750;9.314;2023-06-24T11:30:11;27.90;93.60
40676;DHT22;26359;48.750;9.314;2023-06-24T11:32:39;28.00;92.40
40676;DHT22;26359;48.750;9.314;2023-06-24T11:35:09;27.70;92.60
40676;DHT22;26359;48.750;9.314;2023-06-24T11:37:35;27.50;93.60
40676;DHT22;26359;48.750;9.314;2023-06-24T11:40:03;27.60;92.70
40676;DHT22;26359;48.750;9.314;2023-06-24T11:42:30;27.60;92.30
40676;DHT22;26359;48.750;9.314;2023-06-24T11:45:00;27.70;92.70
40676;DHT22;26359;48.750;9.314;2023-06-24T11:47:26;27.70;91.60
40676;DHT22;26359;48.750;9.314;2023-06-24T11:49:55;27.80;91.00
40676;DHT22;26359;48.750;9.314;2023-06-24T11:55:01;28.20;90.20
40676;DHT22;26359;48.750;9.314;2023-06-24T11:57:46;28.30;87.80
40676;DHT22;26359;48.750;9.314;2023-06-24T12:00:14;28.50;89.60
40676;DHT22;26359;48.750;9.314;2023-06-24T12:02:40;28.50;89.60
40676;DHT22;26359;48.750;9.314;2023-06-24T12:05:06;28.60;90.10
40676;DHT22;26359;48.750;9.314;2023-06-24T12:07:31;28.70;87.50
40676;DHT22;26359;48.750;9.314;2023-06-24T12:09:57;28.60;90.20
40676;DHT22;26359;48.750;9.314;2023-06-24T12:12:22;28.40;89.70
40676;DHT22;26359;48.750;9.314;2023-06-24T12:14:48;28.10;89.30
40676;DHT22;26359;48.750;9.314;2023-06-24T12:17:13;28.20;89.00
40676;DHT22;26359;48.750;9.314;2023-06-24T12:19:39;28.50;89.60
40676;DHT22;26359;48.750;9.314;2023-06-24T12:22:04;28.90;90.80
40676;DHT22;26359;48.750;9.314;2023-06-24T12:24:30;29.00;90.70
40676;DHT22;26359;48.750;9.314;2023-06-24T12:26:56;29.10;89.50
40676;DHT22;26359;48.750;9.314;2023-06-24T12:29:21;28.80;88.00
40676;DHT22;26359;48.750;9.314;2023-06-24T12:31:47;28.50;87.00
40676;DHT22;26359;48.750;9.314;2023-06-24T12:34:13;28.10;87.60
40676;DHT22;26359;48.750;9.314;2023-06-24T12:36:38;27.70;88.70
40676;DHT22;26359;48.750;9.314;2023-06-24T12:39:04;27.50;89.80
40676;DHT22;26359;48.750;9.314;2023-06-24T12:41:29;27.50;90.50
40676;DHT22;26359;48.750;9.314;2023-06-24T12:43:55;27.90;87.10
40676;DHT22;26359;48.750;9.314;2023-06-24T12:46:20;27.90;89.40
40676;DHT22;26359;48.750;9.314;2023-06-24T12:48:46;27.80;88.60
40676;DHT22;26359;48.750;9.314;2023-06-24T12:51:11;27.70;89.40
40676;DHT22;26359;48.750;9.314;2023-06-24T12:53:37;27.90;86.30
40676;DHT22;26359;48.750;9.314;2023-06-24T12:56:03;28.00;85.80
40676;DHT22;26359;48.750;9.314;2023-06-24T12:58:28;28.10;83.20
40676;DHT22;26359;48.750;9.314;2023-06-24T13:00:54;28.20;87.80
40676;DHT22;26359;48.750;9.314;2023-06-24T13:03:19;28.40;82.10
40676;DHT22;26359;48.750;9.314;2023-06-24T13:05:45;28.60;84.10
40676;DHT22;26359;48.750;9.314;2023-06-24T13:08:10;28.90;84.70
40676;DHT22;26359;48.750;9.314;2023-06-24T13:10:37;29.10;82.00
40676;DHT22;26359;48.750;9.314;2023-06-24T13:13:04;28.90;83.50
40676;DHT22;26359;48.750;9.314;2023-06-24T13:15:29;29.10;83.10
40676;DHT22;26359;48.750;9.314;2023-06-24T13:17:55;29.30;81.20
40676;DHT22;26359;48.750;9.314;2023-06-24T13:20:20;29.50;81.40
40676;DHT22;26359;48.750;9.314;2023-06-24T13:22:46;29.60;81.10
40676;DHT22;26359;48.750;9.314;2023-06-24T13:25:11;29.90;79.00
40676;DHT22;26359;48.750;9.314;2023-06-24T13:27:37;29.80;80.30
40676;DHT22;26359;48.750;9.314;2023-06-24T13:30:03;29.80;79.50
40676;DHT22;26359;48.750;9.314;2023-06-24T13:32:29;29.80;82.30
40676;DHT22;26359;48.750;9.314;2023-06-24T13:34:55;29.80;80.80
40676;DHT22;26359;48.750;9.314;2023-06-24T13:37:20;29.80;82.30
40676;DHT22;26359;48.750;9.314;2023-06-24T13:39:46;29.90;84.90
40676;DHT22;26359;48.750;9.314;2023-06-24T13:42:12;29.90;82.20
40676;DHT22;26359;48.750;9.314;2023-06-24T13:44:38;30.00;80.40
40676;DHT22;26359;48.750;9.314;2023-06-24T13:47:04;29.90;81.40
40676;DHT22;26359;48.750;9.314;2023-06-24T13:49:30;29.90;81.00
40676;DHT22;26359;48.750;9.314;2023-06-24T13:51:55;29.80;81.80
40676;DHT22;26359;48.750;9.314;2023-06-24T13:54:23;30.00;81.70
40676;DHT22;26359;48.750;9.314;2023-06-24T13:56:50;30.00;79.90
40676;DHT22;26359;48.750;9.314;2023-06-24T13:59:15;30.10;81.90
40676;DHT22;26359;48.750;9.314;2023-06-24T14:01:41;30.10;81.00
40676;DHT22;26359;48.750;9.314;2023-06-24T14:04:06;30.00;80.10
40676;DHT22;26359;48.750;9.314;2023-06-24T14:06:32;29.90;80.00
40676;DHT22;26359;48.750;9.314;2023-06-24T14:08:57;29.90;80.20
40676;DHT22;26359;48.750;9.314;2023-06-24T14:11:23;29.80;80.80
40676;DHT22;26359;48.750;9.314;2023-06-24T14:13:48;29.60;80.10
40676;DHT22;26359;48.750;9.314;2023-06-24T14:16:14;29.70;78.90
40676;DHT22;26359;48.750;9.314;2023-06-24T14:18:39;29.70;81.90
40676;DHT22;26359;48.750;9.314;2023-06-24T14:21:06;29.80;82.00
40676;DHT22;26359;48.750;9.314;2023-06-24T14:23:32;29.80;80.20
40676;DHT22;26359;48.750;9.314;2023-06-24T14:25:58;29.80;80.80
40676;DHT22;26359;48.750;9.314;2023-06-24T14:28:25;29.90;79.70
40676;DHT22;26359;48.750;9.314;2023-06-24T14:30:50;29.60;77.40
40676;DHT22;26359;48.750;9.314;2023-06-24T14:33:16;29.30;76.60
40676;DHT22;26359;48.750;9.314;2023-06-24T14:35:42;29.10;78.10
40676;DHT22;26359;48.750;9.314;2023-06-24T14:38:08;29.00;78.40
40676;DHT22;26359;48.750;9.314;2023-06-24T14:40:33;29.10;82.30
40676;DHT22;26359;48.750;9.314;2023-06-24T14:42:59;29.40;77.30
40676;DHT22;26359;48.750;9.314;2023-06-24T14:45:25;30.00;77.80
40676;DHT22;26359;48.750;9.314;2023-06-24T14:47:51;30.40;76.00
40676;DHT22;26359;48.750;9.314;2023-06-24T14:50:16;30.80;75.30
40676;DHT22;26359;48.750;9.314;2023-06-24T14:52:42;31.40;74.20
40676;DHT22;26359;48.750;9.314;2023-06-24T14:55:08;31.90;74.50
40676;DHT22;26359;48.750;9.314;2023-06-24T14:57:34;31.90;74.80
40676;DHT22;26359;48.750;9.314;2023-06-24T15:00:00;32.20;75.80
40676;DHT22;26359;48.750;9.314;2023-06-24T15:02:25;32.20;72.70
40676;DHT22;26359;48.750;9.314;2023-06-24T15:04:51;32.00;70.20
40676;DHT22;26359;48.750;9.314;2023-06-24T15:07:17;31.80;73.30
40676;DHT22;26359;48.750;9.314;2023-06-24T15:09:43;31.90;71.50
40676;DHT22;26359;48.750;9.314;2023-06-24T15:12:08;31.70;71.40
40676;DHT22;26359;48.750;9.314;2023-06-24T15:14:34;31.40;71.90
40676;DHT22;26359;48.750;9.314;2023-06-24T15:17:00;31.20;71.80
40676;DHT22;26359;48.750;9.314;2023-06-24T15:19:25;31.20;71.50
40676;DHT22;26359;48.750;9.314;2023-06-24T15:21:51;31.30;71.50
40676;DHT22;26359;48.750;9.314;2023-06-24T15:24:16;31.10;72.80
40676;DHT22;26359;48.750;9.314;2023-06-24T15:26:42;30.80;71.30
40676;DHT22;26359;48.750;9.314;2023-06-24T15:29:07;30.80;74.40
40676;DHT22;26359;48.750;9.314;2023-06-24T15:31:33;30.80;73.20
40676;DHT22;26359;48.750;9.314;2023-06-24T15:33:58;30.80;73.30
40676;DHT22;26359;48.750;9.314;2023-06-24T15:36:24;30.70;71.10
40676;DHT22;26359;48.750;9.314;2023-06-24T15:38:52;30.40;73.50
40676;DHT22;26359;48.750;9.314;2023-06-24T15:41:18;30.30;72.90
40676;DHT22;26359;48.750;9.314;2023-06-24T15:43:44;30.30;75.30